sensor_id;sensor_type;location;lat;lon;timestamp;P1;durP1;ratioP1;P2;durP2;ratioP2
63218;SDS011;49320;52.512;13.448;2023-05-29T00:02:13;3.97;;;2.70;;
63218;SDS011;49320;52.512;13.448;2023-05-29T00:04:39;4.13;;;2.70;;
63218;SDS011;49320;52.512;13.448;2023-05-29T00:07:06;4.10;;;2.65;;
63218;SDS011;49320;52.512;13.448;2023-05-29T00:09:33;6.57;;;3.28;;
63218;SDS011;49320;52.512;13.448;2023-05-29T00:12:00;5.85;;;2.83;;
63218;SDS011;49320;52.512;13.448;2023-05-29T00:14:28;4.68;;;2.47;;
63218;SDS011;49320;52.512;13.448;2023-05-29T00:16:55;5.45;;;3.17;;
63218;SDS011;49320;52.512;13.448;2023-05-29T00:19:23;4.47;;;2.70;;
63218;SDS011;49320;52.512;13.448;2023-05-29T00:21:51;3.67;;;2.38;;
63218;SDS011;49320;52.512;13.448;2023-05-29T00:24:17;4.40;;;2.70;;
63218;SDS011;49320;52.512;13.448;2023-05-29T00:26:46;4.47;;;2.67;;
63218;SDS011;49320;52.512;13.448;2023-05-29T00:29:12;6.28;;;2.70;;
63218;SDS011;49320;52.512;13.448;2023-05-29T00:31:39;5.00;;;2.60;;
63218;SDS011;49320;52.512;13.448;2023-05-29T00:34:06;4.10;;;2.10;;
63218;SDS011;49320;52.512;13.448;2023-05-29T00:36:33;4.88;;;2.58;;
63218;SDS011;49320;52.512;13.448;2023-05-29T00:39:00;3.88;;;2.25;;
63218;SDS011;49320;52.512;13.448;2023-05-29T00:41:27;4.55;;;2.63;;
63218;SDS011;49320;52.512;13.448;2023-05-29T00:43:54;4.75;;;2.42;;
63218;SDS011;49320;52.512;13.448;2023-05-29T00:46:21;4.05;;;2.28;;
63218;SDS011;49320;52.512;13.448;2023-05-29T00:48:48;5.20;;;2.78;;
63218;SDS011;49320;52.512;13.448;2023-05-29T00:51:16;6.45;;;2.55;;
63218;SDS011;49320;52.512;13.448;2023-05-29T00:53:43;4.53;;;3.03;;
63218;SDS011;49320;52.512;13.448;2023-05-29T00:56:11;5.15;;;2.72;;
63218;SDS011;49320;52.512;13.448;2023-05-29T00:58:39;3.92;;;2.80;;
63218;SDS011;49320;52.512;13.448;2023-05-29T01:01:08;4.97;;;2.78;;
63218;SDS011;49320;52.512;13.448;2023-05-29T01:03:35;3.85;;;2.38;;
63218;SDS011;49320;52.512;13.448;2023-05-29T01:06:02;3.40;;;2.30;;
63218;SDS011;49320;52.512;13.448;2023-05-29T01:08:29;3.83;;;2.42;;
63218;SDS011;49320;52.512;13.448;2023-05-29T01:11:07;4.75;;;2.40;;
63218;SDS011;49320;52.512;13.448;2023-05-29T01:13:44;4.72;;;2.47;;
63218;SDS011;49320;52.512;13.448;2023-05-29T01:16:12;3.78;;;2.50;;
63218;SDS011;49320;52.512;13.448;2023-05-29T01:18:47;5.43;;;2.72;;
63218;SDS011;49320;52.512;13.448;2023-05-29T01:27:11;5.97;;;2.47;;
63218;SDS011;49320;52.512;13.448;2023-05-29T01:29:44;4.85;;;2.30;;
63218;SDS011;49320;52.512;13.448;2023-05-29T01:32:13;5.75;;;2.78;;
63218;SDS011;49320;52.512;13.448;2023-05-29T01:34:40;4.30;;;2.58;;
63218;SDS011;49320;52.512;13.448;2023-05-29T01:37:07;7.15;;;2.92;;
63218;SDS011;49320;52.512;13.448;2023-05-29T01:39:34;4.55;;;2.75;;
63218;SDS011;49320;52.512;13.448;2023-05-29T01:42:01;3.65;;;2.58;;
63218;SDS011;49320;52.512;13.448;2023-05-29T01:44:29;4.88;;;2.53;;
63218;SDS011;49320;52.512;13.448;2023-05-29T01:46:58;5.18;;;3.20;;
63218;SDS011;49320;52.512;13.448;2023-05-29T01:49:25;5.05;;;2.95;;
63218;SDS011;49320;52.512;13.448;2023-05-29T01:51:55;4.63;;;2.60;;
63218;SDS011;49320;52.512;13.448;2023-05-29T01:54:22;6.70;;;3.22;;
63218;SDS011;49320;52.512;13.448;2023-05-29T01:56:49;5.57;;;3.05;;
63218;SDS011;49320;52.512;13.448;2023-05-29T01:59:17;7.30;;;2.88;;
63218;SDS011;49320;52.512;13.448;2023-05-29T02:01:44;5.03;;;2.78;;
63218;SDS011;49320;52.512;13.448;2023-05-29T02:04:11;4.47;;;2.58;;
63218;SDS011;49320;52.512;13.448;2023-05-29T02:06:38;3.33;;;2.38;;
63218;SDS011;49320;52.512;13.448;2023-05-29T02:09:05;4.47;;;2.65;;
63218;SDS011;49320;52.512;13.448;2023-05-29T02:11:32;3.88;;;2.20;;
63218;SDS011;49320;52.512;13.448;2023-05-29T02:13:59;3.80;;;2.08;;
63218;SDS011;49320;52.512;13.448;2023-05-29T02:16:29;6.45;;;2.97;;
63218;SDS011;49320;52.512;13.448;2023-05-29T02:19:00;5.53;;;2.63;;
63218;SDS011;49320;52.512;13.448;2023-05-29T02:21:28;4.80;;;2.55;;
63218;SDS011;49320;52.512;13.448;2023-05-29T02:23:55;5.63;;;2.65;;
63218;SDS011;49320;52.512;13.448;2023-05-29T02:26:21;6.40;;;3.13;;
63218;SDS011;49320;52.512;13.448;2023-05-29T02:28:49;6.10;;;3.30;;
63218;SDS011;49320;52.512;13.448;2023-05-29T02:31:16;4.40;;;2.67;;
63218;SDS011;49320;52.512;13.448;2023-05-29T02:33:42;3.70;;;2.42;;
63218;SDS011;49320;52.512;13.448;2023-05-29T02:36:09;3.83;;;2.85;;
63218;SDS011;49320;52.512;13.448;2023-05-29T02:38:37;4.60;;;2.88;;
63218;SDS011;49320;52.512;13.448;2023-05-29T02:41:04;6.05;;;3.25;;
63218;SDS011;49320;52.512;13.448;2023-05-29T02:43:32;4.70;;;2.53;;
63218;SDS011;49320;52.512;13.448;2023-05-29T02:45:58;5.47;;;2.80;;
63218;SDS011;49320;52.512;13.448;2023-05-29T02:48:25;4.72;;;2.90;;
63218;SDS011;49320;52.512;13.448;2023-05-29T02:50:52;4.85;;;2.80;;
63218;SDS011;49320;52.512;13.448;2023-05-29T02:53:20;5.85;;;2.83;;
63218;SDS011;49320;52.512;13.448;2023-05-29T02:55:47;5.03;;;2.97;;
63218;SDS011;49320;52.512;13.448;2023-05-29T02:58:15;4.70;;;2.90;;
63218;SDS011;49320;52.512;13.448;2023-05-29T03:00:42;3.90;;;2.95;;
63218;SDS011;49320;52.512;13.448;2023-05-29T03:03:09;5.93;;;3.20;;
63218;SDS011;49320;52.512;13.448;2023-05-29T03:05:36;5.93;;;3.08;;
63218;SDS011;49320;52.512;13.448;2023-05-29T03:08:03;7.07;;;3.20;;
63218;SDS011;49320;52.512;13.448;2023-05-29T03:10:30;6.45;;;2.80;;
63218;SDS011;49320;52.512;13.448;2023-05-29T03:12:57;5.85;;;3.15;;
63218;SDS011;49320;52.512;13.448;2023-05-29T03:15:23;5.47;;;2.75;;
63218;SDS011;49320;52.512;13.448;2023-05-29T03:17:50;5.03;;;3.40;;
63218;SDS011;49320;52.512;13.448;2023-05-29T03:20:17;7.88;;;3.10;;
63218;SDS011;49320;52.512;13.448;2023-05-29T03:22:44;4.88;;;3.40;;
63218;SDS011;49320;52.512;13.448;2023-05-29T03:25:11;5.38;;;3.50;;
63218;SDS011;49320;52.512;13.448;2023-05-29T03:27:38;6.72;;;3.35;;
63218;SDS011;49320;52.512;13.448;2023-05-29T03:30:05;6.40;;;3.40;;
63218;SDS011;49320;52.512;13.448;2023-05-29T03:32:33;4.03;;;3.03;;
63218;SDS011;49320;52.512;13.448;2023-05-29T03:35:00;5.10;;;2.92;;
63218;SDS011;49320;52.512;13.448;2023-05-29T03:37:27;5.10;;;3.05;;
63218;SDS011;49320;52.512;13.448;2023-05-29T03:39:54;5.80;;;3.70;;
63218;SDS011;49320;52.512;13.448;2023-05-29T03:42:21;5.68;;;3.35;;
63218;SDS011;49320;52.512;13.448;2023-05-29T03:44:47;6.07;;;3.50;;
63218;SDS011;49320;52.512;13.448;2023-05-29T03:47:14;4.93;;;2.88;;
63218;SDS011;49320;52.512;13.448;2023-05-29T03:49:41;4.72;;;3.03;;
63218;SDS011;49320;52.512;13.448;2023-05-29T03:52:08;5.65;;;3.13;;
63218;SDS011;49320;52.512;13.448;2023-05-29T03:54:35;5.15;;;2.85;;
63218;SDS011;49320;52.512;13.448;2023-05-29T03:57:01;3.22;;;2.38;;
63218;SDS011;49320;52.512;13.448;2023-05-29T03:59:29;5.30;;;3.03;;
63218;SDS011;49320;52.512;13.448;2023-05-29T04:01:56;5.80;;;3.20;;
63218;SDS011;49320;52.512;13.448;2023-05-29T04:04:23;4.85;;;2.88;;
63218;SDS011;49320;52.512;13.448;2023-05-29T04:06:49;4.30;;;2.63;;
63218;SDS011;49320;52.512;13.448;2023-05-29T04:09:16;6.80;;;3.33;;
63218;SDS011;49320;52.512;13.448;2023-05-29T04:11:43;4.32;;;2.78;;
63218;SDS011;49320;52.512;13.448;2023-05-29T04:14:10;4.30;;;2.85;;
63218;SDS011;49320;52.512;13.448;2023-05-29T04:16:37;5.63;;;2.92;;
63218;SDS011;49320;52.512;13.448;2023-05-29T04:19:04;3.30;;;2.22;;
63218;SDS011;49320;52.512;13.448;2023-05-29T04:21:31;4.22;;;2.83;;
63218;SDS011;49320;52.512;13.448;2023-05-29T04:24:01;4.53;;;2.63;;
63218;SDS011;49320;52.512;13.448;2023-05-29T04:26:28;5.50;;;3.25;;
63218;SDS011;49320;52.512;13.448;2023-05-29T04:28:55;5.10;;;2.95;;
63218;SDS011;49320;52.512;13.448;2023-05-29T04:31:25;4.43;;;2.70;;
63218;SDS011;49320;52.512;13.448;2023-05-29T04:33:52;4.38;;;2.55;;
63218;SDS011;49320;52.512;13.448;2023-05-29T04:36:22;5.05;;;2.70;;
63218;SDS011;49320;52.512;13.448;2023-05-29T04:38:54;4.72;;;2.80;;
63218;SDS011;49320;52.512;13.448;2023-05-29T04:41:21;6.05;;;2.97;;
63218;SDS011;49320;52.512;13.448;2023-05-29T04:43:50;3.63;;;2.53;;
63218;SDS011;49320;52.512;13.448;2023-05-29T04:46:19;4.20;;;2.45;;
63218;SDS011;49320;52.512;13.448;2023-05-29T04:48:46;5.00;;;2.45;;
63218;SDS011;49320;52.512;13.448;2023-05-29T04:51:14;5.20;;;2.92;;
63218;SDS011;49320;52.512;13.448;2023-05-29T04:53:40;5.20;;;3.00;;
63218;SDS011;49320;52.512;13.448;2023-05-29T04:56:08;5.03;;;2.90;;
63218;SDS011;49320;52.512;13.448;2023-05-29T04:58:36;3.10;;;2.55;;
63218;SDS011;49320;52.512;13.448;2023-05-29T05:01:03;3.65;;;2.80;;
63218;SDS011;49320;52.512;13.448;2023-05-29T05:03:31;4.53;;;2.72;;
63218;SDS011;49320;52.512;13.448;2023-05-29T05:06:00;3.95;;;2.63;;
63218;SDS011;49320;52.512;13.448;2023-05-29T05:08:33;3.88;;;2.90;;
63218;SDS011;49320;52.512;13.448;2023-05-29T05:11:00;4.68;;;2.75;;
63218;SDS011;49320;52.512;13.448;2023-05-29T05:13:28;4.60;;;2.60;;
63218;SDS011;49320;52.512;13.448;2023-05-29T05:15:54;4.53;;;2.40;;
63218;SDS011;49320;52.512;13.448;2023-05-29T05:18:22;5.32;;;3.17;;
63218;SDS011;49320;52.512;13.448;2023-05-29T05:20:48;5.00;;;2.65;;
63218;SDS011;49320;52.512;13.448;2023-05-29T05:23:15;3.42;;;2.55;;
63218;SDS011;49320;52.512;13.448;2023-05-29T05:25:42;4.90;;;2.40;;
63218;SDS011;49320;52.512;13.448;2023-05-29T05:28:09;4.10;;;2.45;;
63218;SDS011;49320;52.512;13.448;2023-05-29T05:30:36;3.03;;;2.17;;
63218;SDS011;49320;52.512;13.448;2023-05-29T05:33:03;4.43;;;2.63;;
63218;SDS011;49320;52.512;13.448;2023-05-29T05:35:30;3.80;;;2.53;;
63218;SDS011;49320;52.512;13.448;2023-05-29T05:37:57;3.72;;;2.13;;
63218;SDS011;49320;52.512;13.448;2023-05-29T05:40:27;3.97;;;2.60;;
63218;SDS011;49320;52.512;13.448;2023-05-29T05:42:54;2.97;;;2.55;;
63218;SDS011;49320;52.512;13.448;2023-05-29T05:45:20;3.85;;;2.13;;
63218;SDS011;49320;52.512;13.448;2023-05-29T05:47:47;3.85;;;2.67;;
63218;SDS011;49320;52.512;13.448;2023-05-29T05:50:15;3.75;;;2.45;;
63218;SDS011;49320;52.512;13.448;2023-05-29T05:52:42;4.13;;;2.20;;
63218;SDS011;49320;52.512;13.448;2023-05-29T05:55:09;2.83;;;2.00;;
63218;SDS011;49320;52.512;13.448;2023-05-29T05:57:36;3.65;;;2.10;;
63218;SDS011;49320;52.512;13.448;2023-05-29T06:00:03;3.35;;;2.20;;
63218;SDS011;49320;52.512;13.448;2023-05-29T06:02:38;4.75;;;2.40;;
63218;SDS011;49320;52.512;13.448;2023-05-29T06:05:10;2.95;;;2.00;;
63218;SDS011;49320;52.512;13.448;2023-05-29T06:07:38;3.20;;;2.15;;
63218;SDS011;49320;52.512;13.448;2023-05-29T06:10:05;2.78;;;1.70;;
63218;SDS011;49320;52.512;13.448;2023-05-29T06:12:33;4.10;;;1.65;;
63218;SDS011;49320;52.512;13.448;2023-05-29T06:15:00;2.60;;;2.00;;
63218;SDS011;49320;52.512;13.448;2023-05-29T06:17:29;2.88;;;1.92;;
63218;SDS011;49320;52.512;13.448;2023-05-29T06:19:56;2.38;;;1.60;;
63218;SDS011;49320;52.512;13.448;2023-05-29T06:22:23;2.78;;;1.88;;
63218;SDS011;49320;52.512;13.448;2023-05-29T06:24:49;2.88;;;1.70;;
63218;SDS011;49320;52.512;13.448;2023-05-29T06:27:16;3.30;;;2.30;;
63218;SDS011;49320;52.512;13.448;2023-05-29T06:29:44;3.33;;;1.88;;
63218;SDS011;49320;52.512;13.448;2023-05-29T06:32:10;3.03;;;1.83;;
63218;SDS011;49320;52.512;13.448;2023-05-29T06:34:37;2.00;;;1.60;;
63218;SDS011;49320;52.512;13.448;2023-05-29T06:37:04;3.42;;;1.98;;
63218;SDS011;49320;52.512;13.448;2023-05-29T06:39:31;2.50;;;2.20;;
63218;SDS011;49320;52.512;13.448;2023-05-29T06:41:58;2.60;;;1.70;;
63218;SDS011;49320;52.512;13.448;2023-05-29T06:44:25;2.70;;;1.80;;
63218;SDS011;49320;52.512;13.448;2023-05-29T06:46:51;2.13;;;1.42;;
63218;SDS011;49320;52.512;13.448;2023-05-29T06:49:18;2.90;;;1.60;;
63218;SDS011;49320;52.512;13.448;2023-05-29T06:51:45;5.65;;;1.70;;
63218;SDS011;49320;52.512;13.448;2023-05-29T06:54:12;2.15;;;1.60;;
63218;SDS011;49320;52.512;13.448;2023-05-29T06:56:40;3.00;;;1.60;;
63218;SDS011;49320;52.512;13.448;2023-05-29T06:59:07;2.50;;;1.60;;
63218;SDS011;49320;52.512;13.448;2023-05-29T07:01:34;2.17;;;1.60;;
63218;SDS011;49320;52.512;13.448;2023-05-29T07:04:02;3.22;;;1.77;;
63218;SDS011;49320;52.512;13.448;2023-05-29T07:06:29;2.53;;;1.58;;
63218;SDS011;49320;52.512;13.448;2023-05-29T07:08:56;3.17;;;1.80;;
63218;SDS011;49320;52.512;13.448;2023-05-29T07:11:24;3.08;;;1.55;;
63218;SDS011;49320;52.512;13.448;2023-05-29T07:13:53;2.58;;;1.60;;
63218;SDS011;49320;52.512;13.448;2023-05-29T07:16:21;3.25;;;1.58;;
63218;SDS011;49320;52.512;13.448;2023-05-29T07:18:50;1.88;;;1.50;;
63218;SDS011;49320;52.512;13.448;2023-05-29T07:21:17;1.88;;;1.33;;
63218;SDS011;49320;52.512;13.448;2023-05-29T07:23:44;2.83;;;1.50;;
63218;SDS011;49320;52.512;13.448;2023-05-29T07:26:11;3.00;;;1.85;;
63218;SDS011;49320;52.512;13.448;2023-05-29T07:28:38;2.20;;;1.30;;
63218;SDS011;49320;52.512;13.448;2023-05-29T07:31:05;2.58;;;1.30;;
63218;SDS011;49320;52.512;13.448;2023-05-29T07:33:32;2.22;;;1.42;;
63218;SDS011;49320;52.512;13.448;2023-05-29T07:35:59;2.42;;;1.38;;
63218;SDS011;49320;52.512;13.448;2023-05-29T07:38:26;2.88;;;1.60;;
63218;SDS011;49320;52.512;13.448;2023-05-29T07:40:53;2.70;;;1.60;;
63218;SDS011;49320;52.512;13.448;2023-05-29T07:43:20;2.08;;;1.63;;
63218;SDS011;49320;52.512;13.448;2023-05-29T07:45:47;2.42;;;1.60;;
63218;SDS011;49320;52.512;13.448;2023-05-29T07:48:13;2.15;;;1.40;;
63218;SDS011;49320;52.512;13.448;2023-05-29T07:50:40;2.80;;;1.73;;
63218;SDS011;49320;52.512;13.448;2023-05-29T07:53:07;2.35;;;1.70;;
63218;SDS011;49320;52.512;13.448;2023-05-29T07:55:34;2.67;;;1.88;;
63218;SDS011;49320;52.512;13.448;2023-05-29T07:58:02;2.30;;;1.67;;
63218;SDS011;49320;52.512;13.448;2023-05-29T08:00:28;3.60;;;1.80;;
63218;SDS011;49320;52.512;13.448;2023-05-29T08:02:55;3.17;;;1.70;;
63218;SDS011;49320;52.512;13.448;2023-05-29T08:05:23;2.30;;;1.70;;
63218;SDS011;49320;52.512;13.448;2023-05-29T08:07:50;2.38;;;1.40;;
63218;SDS011;49320;52.512;13.448;2023-05-29T08:10:17;4.38;;;1.73;;
63218;SDS011;49320;52.512;13.448;2023-05-29T08:12:44;2.50;;;1.60;;
63218;SDS011;49320;52.512;13.448;2023-05-29T08:15:12;2.75;;;1.80;;
63218;SDS011;49320;52.512;13.448;2023-05-29T08:17:40;2.72;;;1.58;;
63218;SDS011;49320;52.512;13.448;2023-05-29T08:20:07;1.88;;;1.40;;
63218;SDS011;49320;52.512;13.448;2023-05-29T08:22:36;2.58;;;1.55;;
63218;SDS011;49320;52.512;13.448;2023-05-29T08:25:03;3.55;;;1.80;;
63218;SDS011;49320;52.512;13.448;2023-05-29T08:27:30;4.43;;;1.45;;
63218;SDS011;49320;52.512;13.448;2023-05-29T08:29:57;2.65;;;1.48;;
63218;SDS011;49320;52.512;13.448;2023-05-29T08:32:24;1.77;;;1.33;;
63218;SDS011;49320;52.512;13.448;2023-05-29T08:34:51;3.00;;;1.70;;
63218;SDS011;49320;52.512;13.448;2023-05-29T08:37:17;2.80;;;1.63;;
63218;SDS011;49320;52.512;13.448;2023-05-29T08:39:45;1.90;;;1.50;;
63218;SDS011;49320;52.512;13.448;2023-05-29T08:42:13;2.75;;;1.80;;
63218;SDS011;49320;52.512;13.448;2023-05-29T08:44:48;2.00;;;1.58;;
63218;SDS011;49320;52.512;13.448;2023-05-29T08:47:20;3.00;;;1.70;;
63218;SDS011;49320;52.512;13.448;2023-05-29T08:49:52;3.75;;;1.77;;
63218;SDS011;49320;52.512;13.448;2023-05-29T08:52:23;3.17;;;1.80;;
63218;SDS011;49320;52.512;13.448;2023-05-29T08:54:52;2.60;;;1.85;;
63218;SDS011;49320;52.512;13.448;2023-05-29T08:57:20;2.38;;;1.60;;
63218;SDS011;49320;52.512;13.448;2023-05-29T08:59:49;2.75;;;1.83;;
63218;SDS011;49320;52.512;13.448;2023-05-29T09:02:18;2.65;;;1.67;;
63218;SDS011;49320;52.512;13.448;2023-05-29T09:04:46;3.75;;;2.00;;
63218;SDS011;49320;52.512;13.448;2023-05-29T09:07:19;3.35;;;1.90;;
63218;SDS011;49320;52.512;13.448;2023-05-29T09:09:47;2.67;;;1.90;;
63218;SDS011;49320;52.512;13.448;2023-05-29T09:12:15;1.80;;;1.50;;
63218;SDS011;49320;52.512;13.448;2023-05-29T09:14:43;3.22;;;2.10;;
63218;SDS011;49320;52.512;13.448;2023-05-29T09:17:12;2.75;;;1.70;;
63218;SDS011;49320;52.512;13.448;2023-05-29T09:19:39;2.20;;;1.83;;
63218;SDS011;49320;52.512;13.448;2023-05-29T09:22:09;2.22;;;1.70;;
63218;SDS011;49320;52.512;13.448;2023-05-29T09:24:41;2.65;;;1.80;;
63218;SDS011;49320;52.512;13.448;2023-05-29T09:27:12;3.15;;;1.80;;
63218;SDS011;49320;52.512;13.448;2023-05-29T09:29:39;2.35;;;1.55;;
63218;SDS011;49320;52.512;13.448;2023-05-29T09:32:09;2.83;;;1.80;;
63218;SDS011;49320;52.512;13.448;2023-05-29T09:34:43;2.60;;;2.10;;
63218;SDS011;49320;52.512;13.448;2023-05-29T09:37:11;2.90;;;1.90;;
63218;SDS011;49320;52.512;13.448;2023-05-29T09:42:11;2.67;;;2.10;;
63218;SDS011;49320;52.512;13.448;2023-05-29T09:44:41;2.10;;;1.90;;
63218;SDS011;49320;52.512;13.448;2023-05-29T09:47:14;4.93;;;2.05;;
63218;SDS011;49320;52.512;13.448;2023-05-29T09:49:43;3.63;;;2.28;;
63218;SDS011;49320;52.512;13.448;2023-05-29T09:52:13;2.65;;;1.90;;
63218;SDS011;49320;52.512;13.448;2023-05-29T09:54:44;3.40;;;2.33;;
63218;SDS011;49320;52.512;13.448;2023-05-29T09:57:13;2.83;;;1.90;;
63218;SDS011;49320;52.512;13.448;2023-05-29T09:59:43;2.65;;;2.08;;
63218;SDS011;49320;52.512;13.448;2023-05-29T10:02:19;3.30;;;1.95;;
63218;SDS011;49320;52.512;13.448;2023-05-29T10:04:47;2.75;;;1.77;;
63218;SDS011;49320;52.512;13.448;2023-05-29T10:07:22;2.85;;;2.30;;
63218;SDS011;49320;52.512;13.448;2023-05-29T10:09:57;5.63;;;2.03;;
63218;SDS011;49320;52.512;13.448;2023-05-29T10:12:29;3.42;;;2.10;;
63218;SDS011;49320;52.512;13.448;2023-05-29T10:15:05;4.80;;;2.10;;
63218;SDS011;49320;52.512;13.448;2023-05-29T10:17:39;3.72;;;2.03;;
63218;SDS011;49320;52.512;13.448;2023-05-29T10:20:17;2.65;;;2.03;;
63218;SDS011;49320;52.512;13.448;2023-05-29T10:22:47;3.38;;;2.38;;
63218;SDS011;49320;52.512;13.448;2023-05-29T10:25:19;1.88;;;1.42;;
63218;SDS011;49320;52.512;13.448;2023-05-29T10:27:49;2.70;;;1.90;;
63218;SDS011;49320;52.512;13.448;2023-05-29T10:36:17;2.80;;;2.17;;
63218;SDS011;49320;52.512;13.448;2023-05-29T10:38:50;2.70;;;1.83;;
63218;SDS011;49320;52.512;13.448;2023-05-29T10:43:54;3.72;;;2.00;;
63218;SDS011;49320;52.512;13.448;2023-05-29T10:47:01;2.83;;;2.20;;
63218;SDS011;49320;52.512;13.448;2023-05-29T10:49:24;2.70;;;1.67;;
63218;SDS011;49320;52.512;13.448;2023-05-29T10:51:51;2.40;;;1.90;;
63218;SDS011;49320;52.512;13.448;2023-05-29T10:54:19;2.63;;;2.00;;
63218;SDS011;49320;52.512;13.448;2023-05-29T10:56:57;3.03;;;2.10;;
63218;SDS011;49320;52.512;13.448;2023-05-29T10:59:27;3.30;;;2.05;;
63218;SDS011;49320;52.512;13.448;2023-05-29T11:01:55;3.22;;;2.17;;
63218;SDS011;49320;52.512;13.448;2023-05-29T11:06:54;2.60;;;1.60;;
63218;SDS011;49320;52.512;13.448;2023-05-29T11:09:28;2.42;;;1.73;;
63218;SDS011;49320;52.512;13.448;2023-05-29T11:15:03;2.38;;;1.83;;
63218;SDS011;49320;52.512;13.448;2023-05-29T11:20:09;2.67;;;1.98;;
63218;SDS011;49320;52.512;13.448;2023-05-29T11:23:04;3.42;;;2.08;;
63218;SDS011;49320;52.512;13.448;2023-05-29T11:25:35;2.80;;;2.13;;
63218;SDS011;49320;52.512;13.448;2023-05-29T11:28:03;3.38;;;2.03;;
63218;SDS011;49320;52.512;13.448;2023-05-29T11:30:41;2.92;;;1.90;;
63218;SDS011;49320;52.512;13.448;2023-05-29T11:33:34;2.20;;;1.90;;
63218;SDS011;49320;52.512;13.448;2023-05-29T11:36:05;4.70;;;2.17;;
63218;SDS011;49320;52.512;13.448;2023-05-29T11:38:34;2.42;;;1.75;;
63218;SDS011;49320;52.512;13.448;2023-05-29T11:41:02;2.53;;;2.00;;
63218;SDS011;49320;52.512;13.448;2023-05-29T11:43:31;2.33;;;1.73;;
63218;SDS011;49320;52.512;13.448;2023-05-29T11:45:59;2.67;;;1.80;;
63218;SDS011;49320;52.512;13.448;2023-05-29T11:48:25;2.70;;;2.00;;
63218;SDS011;49320;52.512;13.448;2023-05-29T11:50:52;2.70;;;1.88;;
63218;SDS011;49320;52.512;13.448;2023-05-29T11:53:19;2.03;;;1.65;;
63218;SDS011;49320;52.512;13.448;2023-05-29T11:55:46;4.32;;;1.85;;
63218;SDS011;49320;52.512;13.448;2023-05-29T11:58:14;1.85;;;1.50;;
63218;SDS011;49320;52.512;13.448;2023-05-29T12:00:42;4.13;;;1.80;;
63218;SDS011;49320;52.512;13.448;2023-05-29T12:03:10;2.33;;;1.80;;
63218;SDS011;49320;52.512;13.448;2023-05-29T12:05:45;3.53;;;1.83;;
63218;SDS011;49320;52.512;13.448;2023-05-29T12:08:15;3.78;;;2.25;;
63218;SDS011;49320;52.512;13.448;2023-05-29T12:10:46;2.70;;;2.10;;
63218;SDS011;49320;52.512;13.448;2023-05-29T12:13:18;2.83;;;2.13;;
63218;SDS011;49320;52.512;13.448;2023-05-29T12:15:46;3.08;;;1.73;;
63218;SDS011;49320;52.512;13.448;2023-05-29T12:18:15;2.50;;;2.05;;
63218;SDS011;49320;52.512;13.448;2023-05-29T12:20:43;2.67;;;2.10;;
63218;SDS011;49320;52.512;13.448;2023-05-29T12:23:09;2.58;;;1.95;;
63218;SDS011;49320;52.512;13.448;2023-05-29T12:25:38;2.13;;;1.63;;
63218;SDS011;49320;52.512;13.448;2023-05-29T12:28:06;1.58;;;1.48;;
63218;SDS011;49320;52.512;13.448;2023-05-29T12:30:36;2.63;;;2.10;;
63218;SDS011;49320;52.512;13.448;2023-05-29T12:33:05;2.30;;;1.90;;
63218;SDS011;49320;52.512;13.448;2023-05-29T12:35:33;3.35;;;2.05;;
63218;SDS011;49320;52.512;13.448;2023-05-29T12:38:00;3.22;;;2.05;;
63218;SDS011;49320;52.512;13.448;2023-05-29T12:40:32;3.88;;;1.88;;
63218;SDS011;49320;52.512;13.448;2023-05-29T12:43:01;3.30;;;1.77;;
63218;SDS011;49320;52.512;13.448;2023-05-29T12:45:32;3.80;;;2.00;;
63218;SDS011;49320;52.512;13.448;2023-05-29T12:48:01;3.20;;;2.03;;
63218;SDS011;49320;52.512;13.448;2023-05-29T12:50:31;2.65;;;1.50;;
63218;SDS011;49320;52.512;13.448;2023-05-29T12:53:00;3.15;;;1.77;;
63218;SDS011;49320;52.512;13.448;2023-05-29T12:55:39;2.50;;;1.98;;
63218;SDS011;49320;52.512;13.448;2023-05-29T12:58:09;3.22;;;2.05;;
63218;SDS011;49320;52.512;13.448;2023-05-29T13:00:41;3.65;;;2.10;;
63218;SDS011;49320;52.512;13.448;2023-05-29T13:03:10;5.33;;;2.40;;
63218;SDS011;49320;52.512;13.448;2023-05-29T13:05:38;2.67;;;1.70;;
63218;SDS011;49320;52.512;13.448;2023-05-29T13:08:06;2.67;;;1.77;;
63218;SDS011;49320;52.512;13.448;2023-05-29T13:10:34;2.88;;;2.00;;
63218;SDS011;49320;52.512;13.448;2023-05-29T13:13:01;3.25;;;2.03;;
63218;SDS011;49320;52.512;13.448;2023-05-29T13:15:29;4.20;;;2.33;;
63218;SDS011;49320;52.512;13.448;2023-05-29T13:17:56;3.30;;;2.28;;
63218;SDS011;49320;52.512;13.448;2023-05-29T13:20:23;3.00;;;2.00;;
63218;SDS011;49320;52.512;13.448;2023-05-29T13:22:50;4.93;;;2.47;;
63218;SDS011;49320;52.512;13.448;2023-05-29T13:25:17;3.72;;;1.80;;
63218;SDS011;49320;52.512;13.448;2023-05-29T13:27:48;2.95;;;2.00;;
63218;SDS011;49320;52.512;13.448;2023-05-29T13:30:15;2.72;;;1.40;;
63218;SDS011;49320;52.512;13.448;2023-05-29T13:32:44;2.90;;;1.77;;
63218;SDS011;49320;52.512;13.448;2023-05-29T13:35:11;5.53;;;2.13;;
63218;SDS011;49320;52.512;13.448;2023-05-29T13:37:38;3.83;;;2.13;;
63218;SDS011;49320;52.512;13.448;2023-05-29T13:40:06;5.13;;;2.00;;
63218;SDS011;49320;52.512;13.448;2023-05-29T13:42:35;3.72;;;2.10;;
63218;SDS011;49320;52.512;13.448;2023-05-29T13:45:05;2.15;;;1.50;;
63218;SDS011;49320;52.512;13.448;2023-05-29T13:47:33;2.97;;;1.88;;
63218;SDS011;49320;52.512;13.448;2023-05-29T13:50:02;3.65;;;1.83;;
63218;SDS011;49320;52.512;13.448;2023-05-29T13:52:30;3.38;;;1.88;;
63218;SDS011;49320;52.512;13.448;2023-05-29T13:54:56;3.95;;;1.80;;
63218;SDS011;49320;52.512;13.448;2023-05-29T13:57:32;2.90;;;1.98;;
63218;SDS011;49320;52.512;13.448;2023-05-29T13:59:59;2.65;;;1.83;;
63218;SDS011;49320;52.512;13.448;2023-05-29T14:02:25;2.90;;;1.98;;
63218;SDS011;49320;52.512;13.448;2023-05-29T14:04:53;2.50;;;1.58;;
63218;SDS011;49320;52.512;13.448;2023-05-29T14:07:19;3.03;;;1.80;;
63218;SDS011;49320;52.512;13.448;2023-05-29T14:09:46;4.30;;;2.20;;
63218;SDS011;49320;52.512;13.448;2023-05-29T14:12:13;3.25;;;2.00;;
63218;SDS011;49320;52.512;13.448;2023-05-29T14:14:40;2.88;;;1.65;;
63218;SDS011;49320;52.512;13.448;2023-05-29T14:17:11;2.55;;;1.80;;
63218;SDS011;49320;52.512;13.448;2023-05-29T14:19:38;3.28;;;1.60;;
63218;SDS011;49320;52.512;13.448;2023-05-29T14:22:05;3.17;;;1.73;;
63218;SDS011;49320;52.512;13.448;2023-05-29T14:24:32;4.25;;;1.90;;
63218;SDS011;49320;52.512;13.448;2023-05-29T14:26:59;3.03;;;1.80;;
63218;SDS011;49320;52.512;13.448;2023-05-29T14:29:26;3.03;;;1.90;;
63218;SDS011;49320;52.512;13.448;2023-05-29T14:31:53;3.22;;;1.80;;
63218;SDS011;49320;52.512;13.448;2023-05-29T14:34:20;4.50;;;1.92;;
63218;SDS011;49320;52.512;13.448;2023-05-29T14:36:47;3.50;;;1.92;;
63218;SDS011;49320;52.512;13.448;2023-05-29T14:39:17;4.53;;;2.15;;
63218;SDS011;49320;52.512;13.448;2023-05-29T14:41:44;2.75;;;2.05;;
63218;SDS011;49320;52.512;13.448;2023-05-29T14:44:10;3.58;;;1.80;;
63218;SDS011;49320;52.512;13.448;2023-05-29T14:46:38;3.05;;;2.05;;
63218;SDS011;49320;52.512;13.448;2023-05-29T14:49:05;3.25;;;2.08;;
63218;SDS011;49320;52.512;13.448;2023-05-29T14:51:32;4.22;;;1.75;;
63218;SDS011;49320;52.512;13.448;2023-05-29T14:53:59;3.03;;;1.65;;
63218;SDS011;49320;52.512;13.448;2023-05-29T14:56:26;4.50;;;1.90;;
63218;SDS011;49320;52.512;13.448;2023-05-29T14:58:53;2.58;;;1.80;;
63218;SDS011;49320;52.512;13.448;2023-05-29T15:01:20;5.60;;;1.70;;
63218;SDS011;49320;52.512;13.448;2023-05-29T15:03:47;3.50;;;1.75;;
63218;SDS011;49320;52.512;13.448;2023-05-29T15:06:14;2.53;;;1.80;;